Time;durP1;ratioP1;P1;durP2;ratioP2;P2;SDS_P1;SDS_P2;PMS_P1;PMS_P2;Temp;Humidity;BMP_temperature;BMP_pressure;BME280_temperature;BME280_humidity;BME280_pressure;Samples;Min_cycle;Max_cycle;Signal;HPM_P1;HPM_P2
2022/05/09 00:00:17;;;;;;;4.92;2.10;;;;;;;13.45;76.91;100044.84;1739154;81;21060;-52
2022/05/09 00:02:44;;;;;;;3.40;1.92;;;;;;;13.42;76.67;100047.27;1735978;81;21629;-52
2022/05/09 00:05:13;;;;;;;2.37;1.62;;;;;;;13.40;76.43;100051.88;1733580;81;21108;-51
2022/05/09 00:07:40;;;;;;;3.90;2.05;;;;;;;13.37;76.36;100047.10;1734812;81;21325;-53
2022/05/09 00:10:10;;;;;;;3.45;2.17;;;;;;;13.33;76.39;100041.01;1736611;81;21040;-53
2022/05/09 00:12:37;;;;;;;3.33;1.87;;;;;;;13.32;76.45;100038.38;1735117;81;20914;-51
2022/05/09 00:15:06;;;;;;;3.70;2.52;;;;;;;13.30;76.33;100042.99;1736540;81;21037;-53
2022/05/09 00:17:34;;;;;;;4.55;2.33;;;;;;;13.26;76.31;100049.06;1734542;81;21046;-51
2022/05/09 00:20:00;;;;;;;5.70;3.05;;;;;;;13.22;76.34;100044.29;1737082;81;21605;-51
2022/05/09 00:22:28;;;;;;;4.47;3.27;;;;;;;13.23;76.35;100053.28;1735241;81;21314;-51
2022/05/09 00:24:54;;;;;;;5.87;3.75;;;;;;;13.23;76.32;100052.80;1734148;81;21104;-52
2022/05/09 00:27:21;;;;;;;4.87;2.80;;;;;;;13.22;76.30;100048.82;1733448;81;21453;-52
2022/05/09 00:29:47;;;;;;;3.40;2.55;;;;;;;13.20;76.28;100047.55;1734800;81;21503;-52
2022/05/09 00:32:14;;;;;;;3.52;2.67;;;;;;;13.19;76.28;100045.80;1732834;81;21076;-52
2022/05/09 00:34:40;;;;;;;4.28;2.60;;;;;;;13.17;76.34;100045.03;1734682;81;21138;-51
2022/05/09 00:37:07;;;;;;;5.30;3.12;;;;;;;13.17;76.41;100041.45;1734503;81;21045;-51
2022/05/09 00:39:33;;;;;;;3.42;2.67;;;;;;;13.18;76.34;100045.40;1732358;81;21026;-50
2022/05/09 00:42:12;;;;;;;2.55;2.25;;;;;;;13.19;76.28;100046.27;1732911;81;21041;-51
2022/05/09 00:44:39;;;;;;;4.47;2.92;;;;;;;13.14;76.06;100047.89;1734120;81;21085;-52
2022/05/09 00:47:06;;;;;;;5.12;2.58;;;;;;;13.07;75.98;100042.87;1734743;81;21152;-52
2022/05/09 00:49:48;;;;;;;5.35;3.10;;;;;;;13.00;76.13;100042.33;1697918;83;21496;-52
2022/05/09 00:52:26;;;;;;;7.22;2.67;;;;;;;12.95;76.27;100036.28;1738363;81;20931;-52
2022/05/09 00:55:06;;;;;;;3.77;2.37;;;;;;;12.92;76.24;100044.56;1736210;81;20966;-51
2022/05/09 00:57:42;;;;;;;4.17;2.62;;;;;;;12.83;76.08;100049.11;1736660;81;20926;-51
2022/05/09 01:00:13;;;;;;;4.37;2.92;;;;;;;12.75;76.22;100045.46;1734917;81;21066;-51
2022/05/09 01:02:41;;;;;;;4.62;2.42;;;;;;;12.70;76.24;100054.73;1731748;81;20919;-53
2022/05/09 01:05:08;;;;;;;12.30;4.20;;;;;;;12.67;76.54;100053.56;1725508;81;20911;-53
2022/05/09 01:07:34;;;;;;;8.50;4.40;;;;;;;12.67;76.80;100053.09;1729015;81;20910;-51
2022/05/09 01:10:02;;;;;;;9.58;4.20;;;;;;;12.69;76.91;100057.04;1731468;81;20899;-52
2022/05/09 01:12:33;;;;;;;6.58;4.08;;;;;;;12.70;76.96;100048.86;1727774;81;22558;-52
2022/05/09 01:15:01;;;;;;;8.38;3.22;;;;;;;12.73;77.02;100048.71;1694122;84;20917;-52
2022/05/09 01:17:27;;;;;;;5.28;3.42;;;;;;;12.75;77.00;100052.22;1728318;81;20976;-50
2022/05/09 01:19:55;;;;;;;8.18;3.65;;;;;;;12.76;77.04;100057.98;1727338;81;20887;-52
2022/05/09 01:22:30;;;;;;;9.85;3.98;;;;;;;12.74;77.07;100059.92;1724394;81;20931;-50
2022/05/09 01:25:03;;;;;;;5.15;2.90;;;;;;;12.74;77.09;100059.92;1727141;81;22117;-52
2022/05/09 01:27:26;;;;;;;9.43;3.70;;;;;;;12.74;77.17;100063.09;1721655;81;21105;-52
2022/05/09 01:30:19;;;;;;;9.45;5.08;;;;;;;12.74;77.20;100060.39;1729961;81;21045;-52
2022/05/09 01:32:55;;;;;;;7.30;3.42;;;;;;;12.75;77.22;100060.79;1706298;82;21299;-53
2022/05/09 01:35:30;;;;;;;7.87;4.60;;;;;;;12.77;77.39;100062.91;1725042;81;21034;-52
2022/05/09 01:38:22;;;;;;;8.45;5.05;;;;;;;12.79;77.31;100068.64;1706415;81;21405;-52
2022/05/09 01:40:48;;;;;;;8.25;4.85;;;;;;;12.81;77.25;100060.46;1722373;81;21058;-52
2022/05/09 01:43:35;;;;;;;7.00;5.08;;;;;;;12.81;77.35;100065.39;1727350;81;21193;-52
2022/05/09 01:46:03;;;;;;;6.28;4.85;;;;;;;12.79;77.35;100071.34;1664690;83;21491;-51
2022/05/09 01:51:15;;;;;;;7.60;5.10;;;;;;;12.79;77.41;100075.39;1725457;81;21516;-52
2022/05/09 01:53:45;;;;;;;7.65;5.85;;;;;;;12.80;77.50;100081.20;1722263;81;22197;-52
2022/05/09 01:56:13;;;;;;;8.98;6.00;;;;;;;12.80;77.63;100092.00;1686369;83;20927;-52
2022/05/09 01:58:39;;;;;;;8.25;5.42;;;;;;;12.81;77.70;100093.75;1689336;83;21780;-53
2022/05/09 02:01:07;;;;;;;10.13;5.55;;;;;;;12.82;77.76;100092.80;1728439;81;21042;-52
2022/05/09 02:03:35;;;;;;;8.43;6.28;;;;;;;12.82;77.73;100095.51;1719380;81;21030;-52
2022/05/09 02:06:02;;;;;;;16.10;6.45;;;;;;;12.81;77.73;100095.58;1719548;82;21729;-52
2022/05/09 02:08:29;;;;;;;9.65;6.20;;;;;;;12.82;77.62;100091.92;1721375;81;21518;-51
2022/05/09 02:10:56;;;;;;;7.10;5.87;;;;;;;12.78;77.55;100081.75;1723096;82;20884;-52
2022/05/09 02:13:22;;;;;;;10.60;5.65;;;;;;;12.76;77.68;100089.55;1722516;81;20982;-52
2022/05/09 02:15:48;;;;;;;14.73;6.90;;;;;;;12.74;77.82;100097.73;1719832;81;21583;-52
2022/05/09 02:18:15;;;;;;;9.83;6.55;;;;;;;12.72;78.03;100096.05;1718597;81;21299;-52
2022/05/09 02:20:41;;;;;;;13.43;6.35;;;;;;;12.73;78.05;100099.16;1720370;81;21014;-52
2022/05/09 02:23:07;;;;;;;10.32;5.78;;;;;;;12.72;78.02;100096.93;1716870;81;21058;-52
2022/05/09 02:25:36;;;;;;;9.78;5.47;;;;;;;12.74;78.09;100104.95;1720129;81;21101;-52
2022/05/09 02:28:06;;;;;;;11.00;5.37;;;;;;;12.76;78.05;100107.95;1721391;81;21129;-52
2022/05/09 02:30:32;;;;;;;9.73;5.85;;;;;;;12.76;78.06;100105.25;1720461;81;21379;-53
2022/05/09 02:32:58;;;;;;;8.33;5.62;;;;;;;12.74;78.08;100103.13;1717147;81;21546;-51
2022/05/09 02:35:25;;;;;;;10.18;6.00;;;;;;;12.77;77.99;100112.88;1715723;81;21157;-52
2022/05/09 02:37:54;;;;;;;12.75;6.70;;;;;;;12.77;77.92;100114.23;1720318;81;21085;-52
2022/05/09 02:40:23;;;;;;;9.60;5.65;;;;;;;12.74;77.95;100113.94;1717932;81;22172;-52
2022/05/09 02:42:52;;;;;;;11.33;5.55;;;;;;;12.74;78.00;100120.69;1717830;81;21312;-52
2022/05/09 02:45:19;;;;;;;8.83;5.22;;;;;;;12.73;77.97;100120.29;1719764;81;21312;-52
2022/05/09 02:47:46;;;;;;;7.28;4.33;;;;;;;12.72;78.00;100124.41;1718989;81;21406;-51
2022/05/09 02:50:13;;;;;;;7.55;4.40;;;;;;;12.71;78.14;100129.41;1718413;81;21669;-52
2022/05/09 02:52:39;;;;;;;6.22;4.47;;;;;;;12.71;78.28;100130.29;1719364;81;21321;-52
2022/05/09 02:55:07;;;;;;;8.75;3.80;;;;;;;12.72;78.30;100139.27;1714806;81;21089;-51
2022/05/09 02:57:35;;;;;;;6.15;2.80;;;;;;;12.73;78.38;100136.50;1720790;81;20966;-52
2022/05/09 03:00:05;;;;;;;7.60;3.58;;;;;;;12.74;78.39;100136.90;1719989;81;20860;-53
2022/05/09 03:02:33;;;;;;;5.62;3.20;;;;;;;12.76;78.35;100141.72;1717058;81;21021;-52
2022/05/09 03:04:59;;;;;;;5.75;3.40;;;;;;;12.78;78.39;100145.70;1724358;81;20963;-52
2022/05/09 03:07:25;;;;;;;4.25;2.70;;;;;;;12.80;78.45;100151.44;1725504;81;21365;-51
2022/05/09 03:09:53;;;;;;;7.62;3.22;;;;;;;12.82;78.50;100148.19;1725988;81;21357;-51
2022/05/09 03:12:21;;;;;;;4.75;3.15;;;;;;;12.84;78.44;100146.25;1725681;81;21605;-52
2022/05/09 03:14:48;;;;;;;6.05;3.15;;;;;;;12.85;78.46;100149.36;1725151;81;21140;-52
2022/05/09 03:17:15;;;;;;;8.00;3.15;;;;;;;12.84;78.40;100162.97;1726224;80;21055;-51
2022/05/09 03:19:42;;;;;;;7.28;3.30;;;;;;;12.83;78.54;100166.62;1724513;81;21027;-51
2022/05/09 03:22:08;;;;;;;7.55;3.00;;;;;;;12.81;78.64;100168.52;1723873;81;21097;-51
2022/05/09 03:24:35;;;;;;;4.78;2.67;;;;;;;12.83;78.72;100172.02;1724984;81;22312;-52
2022/05/09 03:27:03;;;;;;;3.83;2.85;;;;;;;12.84;78.76;100175.13;1721565;81;21053;-52
2022/05/09 03:29:30;;;;;;;6.50;3.20;;;;;;;12.83;78.82;100179.66;1722797;81;21160;-51
2022/05/09 03:31:57;;;;;;;5.37;2.27;;;;;;;12.80;78.89;100173.05;1724454;81;21045;-51
2022/05/09 03:34:23;;;;;;;4.65;2.65;;;;;;;12.77;78.89;100172.31;1726780;81;21371;-52
2022/05/09 03:36:54;;;;;;;5.28;2.45;;;;;;;12.77;79.11;100181.29;1722788;81;21113;-51
2022/05/09 03:39:18;;;;;;;5.00;2.15;;;;;;;12.83;79.06;100180.13;1728143;81;21427;-52
2022/05/09 03:41:46;;;;;;;5.85;2.83;;;;;;;12.86;79.10;100187.58;1726801;81;21111;-52
2022/05/09 03:44:12;;;;;;;4.80;2.37;;;;;;;12.88;79.02;100188.86;1727804;81;20915;-51
2022/05/09 03:46:39;;;;;;;3.45;2.10;;;;;;;12.89;78.98;100185.21;1722157;81;21429;-51
2022/05/09 03:49:05;;;;;;;3.60;2.02;;;;;;;12.89;78.94;100190.14;1719850;81;21080;-52
2022/05/09 03:51:31;;;;;;;4.65;1.80;;;;;;;12.87;79.02;100194.73;1733211;81;20922;-52
2022/05/09 03:53:57;;;;;;;2.25;2.02;;;;;;;12.86;78.99;100201.09;1727552;81;21048;-52
2022/05/09 03:56:24;;;;;;;2.47;1.80;;;;;;;12.87;79.09;100196.56;1730543;81;20969;-51
2022/05/09 03:58:50;;;;;;;3.33;1.10;;;;;;;12.88;79.14;100202.38;1725998;81;21387;-52
2022/05/09 04:01:16;;;;;;;2.95;1.20;;;;;;;12.88;79.23;100199.20;1727861;81;20907;-52
2022/05/09 04:03:43;;;;;;;3.20;0.95;;;;;;;12.92;79.33;100205.80;1724388;81;20938;-51
2022/05/09 04:06:09;;;;;;;5.42;1.10;;;;;;;12.93;79.35;100204.34;1724279;81;20907;-52
2022/05/09 04:08:36;;;;;;;1.67;1.02;;;;;;;12.98;79.44;100202.78;1723651;81;20935;-51
2022/05/09 04:11:02;;;;;;;2.75;1.00;;;;;;;13.04;79.46;100216.84;1725911;81;21425;-52
2022/05/09 04:13:29;;;;;;;1.75;1.10;;;;;;;13.08;79.28;100214.88;1722009;81;20939;-52
2022/05/09 04:18:41;;;;;;;;;;;;;;;13.13;79.30;100216.86;1723408;81;22182;-52
2022/05/09 04:21:09;;;;;;;2.30;1.07;;;;;;;13.16;79.25;100231.61;1723509;81;20491;-52
2022/05/09 04:23:37;;;;;;;2.75;0.90;;;;;;;13.14;79.29;100233.03;1719903;81;20939;-53
2022/05/09 04:26:04;;;;;;;1.60;0.90;;;;;;;13.14;79.25;100228.98;1720587;81;21003;-52
2022/05/09 04:28:31;;;;;;;1.92;0.80;;;;;;;13.14;79.12;100226.75;1720160;81;20989;-52
2022/05/09 04:30:59;;;;;;;1.52;0.90;;;;;;;13.17;79.27;100227.48;1719546;81;20998;-51
2022/05/09 04:33:25;;;;;;;1.77;0.80;;;;;;;13.22;78.76;100237.57;1716223;81;21076;-52
2022/05/09 04:35:52;;;;;;;2.52;1.12;;;;;;;13.21;78.58;100238.52;1719988;81;22089;-52
2022/05/09 04:38:22;;;;;;;4.17;0.80;;;;;;;13.19;77.95;100240.89;1716963;81;21096;-54
2022/05/09 04:40:54;;;;;;;2.52;0.90;;;;;;;13.18;77.71;100245.93;1718662;81;21054;-53
2022/05/09 04:43:23;;;;;;;1.92;0.70;;;;;;;13.19;77.65;100246.30;1718371;81;22318;-52
2022/05/09 04:45:50;;;;;;;3.75;0.70;;;;;;;13.22;77.46;100248.86;1717529;81;21046;-53
2022/05/09 04:48:18;;;;;;;0.70;0.57;;;;;;;13.26;77.53;100255.88;1716673;81;21086;-52
2022/05/09 04:50:44;;;;;;;1.00;0.60;;;;;;;13.30;77.26;100253.39;1720377;81;21507;-52
2022/05/09 04:53:12;;;;;;;1.40;0.70;;;;;;;13.37;76.95;100255.30;1719364;81;21598;-51
2022/05/09 04:55:39;;;;;;;2.12;0.65;;;;;;;13.42;76.34;100260.88;1722552;81;21139;-52
2022/05/09 04:58:06;;;;;;;1.07;0.70;;;;;;;13.47;76.20;100265.56;1721182;81;20880;-52
2022/05/09 05:00:32;;;;;;;1.47;0.62;;;;;;;13.51;76.18;100270.35;1719724;81;21539;-52
2022/05/09 05:02:59;;;;;;;0.80;0.50;;;;;;;13.52;75.71;100267.58;1723083;81;21444;-54
2022/05/09 05:05:26;;;;;;;0.90;0.60;;;;;;;13.53;75.60;100263.88;1733483;81;21107;-51
2022/05/09 05:07:53;;;;;;;0.55;0.53;;;;;;;13.52;74.77;100269.40;1731482;81;21146;-51
2022/05/09 05:10:19;;;;;;;0.75;0.60;;;;;;;13.53;75.05;100273.83;1733816;81;21053;-51
2022/05/09 05:12:46;;;;;;;1.02;0.60;;;;;;;13.60;75.16;100280.69;1734115;81;21041;-53
2022/05/09 05:15:12;;;;;;;1.30;0.70;;;;;;;13.67;74.58;100277.18;1732567;81;21045;-52
2022/05/09 05:17:39;;;;;;;2.80;0.70;;;;;;;13.71;74.28;100282.33;1735502;81;21327;-51
2022/05/09 05:20:09;;;;;;;1.22;0.60;;;;;;;13.77;74.16;100282.52;1734538;81;21447;-52
2022/05/09 05:22:37;;;;;;;0.60;0.50;;;;;;;13.82;74.05;100285.83;1737493;81;21053;-52
2022/05/09 05:25:05;;;;;;;0.60;0.50;;;;;;;13.85;73.72;100283.85;1731970;81;21038;-51
2022/05/09 05:27:31;;;;;;;0.60;0.57;;;;;;;13.87;73.19;100287.80;1731877;81;21058;-52
2022/05/09 05:29:59;;;;;;;1.10;0.57;;;;;;;13.90;73.14;100291.71;1731996;81;21037;-52
2022/05/09 05:32:35;;;;;;;0.95;0.70;;;;;;;13.87;72.47;100299.50;1728258;81;21111;-53
2022/05/09 05:35:03;;;;;;;0.70;0.60;;;;;;;13.84;72.39;100292.05;1735919;81;21410;-52
2022/05/09 05:37:29;;;;;;;0.68;0.60;;;;;;;13.86;72.78;100295.55;1733593;81;21458;-52
2022/05/09 05:39:57;;;;;;;2.25;0.60;;;;;;;13.86;72.07;100289.66;1731437;81;21066;-52
2022/05/09 05:42:24;;;;;;;0.95;0.60;;;;;;;13.88;72.18;100297.67;1734185;81;21112;-53
2022/05/09 05:44:51;;;;;;;0.60;0.60;;;;;;;13.91;71.92;100297.52;1731967;81;21705;-51
2022/05/09 05:47:18;;;;;;;1.57;0.70;;;;;;;13.92;71.90;100300.16;1732974;81;21503;-52
2022/05/09 05:49:46;;;;;;;0.60;0.60;;;;;;;13.93;71.63;100305.97;1732083;81;21340;-51
2022/05/09 05:52:14;;;;;;;0.80;0.60;;;;;;;13.89;71.15;100307.55;1736304;81;21787;-51
2022/05/09 05:54:43;;;;;;;0.80;0.55;;;;;;;13.82;71.15;100316.47;1734500;81;21116;-53
2022/05/09 05:57:22;;;;;;;0.90;0.60;;;;;;;13.76;70.97;100311.39;1735463;80;21840;-52
2022/05/09 05:59:54;;;;;;;1.00;0.55;;;;;;;13.71;70.60;100310.73;1735205;81;21086;-52
2022/05/09 06:02:21;;;;;;;1.75;0.50;;;;;;;13.74;70.70;100317.36;1734526;81;21046;-52
2022/05/09 06:04:48;;;;;;;0.45;0.40;;;;;;;13.79;69.96;100320.68;1731431;80;21090;-52
2022/05/09 06:07:15;;;;;;;1.55;0.60;;;;;;;13.86;69.47;100326.20;1723852;81;21325;-51
2022/05/09 06:09:42;;;;;;;1.95;0.50;;;;;;;13.94;68.56;100323.95;1723143;81;21229;-52
2022/05/09 06:12:09;;;;;;;1.17;0.40;;;;;;;14.03;68.46;100322.09;1726666;81;21314;-53
2022/05/09 06:14:37;;;;;;;2.20;0.80;;;;;;;14.12;67.02;100330.70;1725356;81;21403;-52
2022/05/09 06:17:07;;;;;;;0.90;0.30;;;;;;;14.16;66.10;100333.62;1726623;80;22206;-53
2022/05/09 06:19:34;;;;;;;0.35;0.35;;;;;;;14.19;64.48;100339.77;1725460;81;21126;-53
2022/05/09 06:22:01;;;;;;;0.40;0.30;;;;;;;14.19;63.11;100347.89;1723971;80;21817;-52
2022/05/09 06:24:28;;;;;;;1.98;0.30;;;;;;;14.22;63.37;100331.94;1726679;80;21459;-54
2022/05/09 06:26:55;;;;;;;1.37;0.50;;;;;;;14.27;62.75;100340.23;1725539;81;21101;-53
2022/05/09 06:29:21;;;;;;;0.50;0.40;;;;;;;14.29;62.75;100341.50;1725467;81;21033;-53
2022/05/09 06:31:48;;;;;;;0.62;0.30;;;;;;;14.32;62.96;100335.90;1726869;81;21068;-53
2022/05/09 06:34:15;;;;;;;3.17;0.45;;;;;;;14.35;63.20;100342.52;1726348;81;21497;-53
2022/05/09 06:38:50;;;;;;;1.90;0.40;;;;;;;14.45;62.59;100335.67;1774068;78;22600;-53
2022/05/09 06:43:47;;;;;;;0.83;0.30;;;;;;;14.37;61.13;100347.38;1774271;78;22306;-55
2022/05/09 06:46:16;;;;;;;0.42;0.30;;;;;;;14.21;60.78;100348.66;1737745;80;20958;-53
2022/05/09 06:48:42;;;;;;;0.75;0.40;;;;;;;14.14;61.54;100347.72;1741085;80;21165;-54
2022/05/09 06:51:08;;;;;;;0.90;0.40;;;;;;;14.11;61.81;100347.42;1738972;80;20907;-53
2022/05/09 06:53:35;;;;;;;0.85;0.40;;;;;;;14.14;62.31;100347.23;1742791;80;20902;-53
2022/05/09 06:56:04;;;;;;;3.52;0.40;;;;;;;14.19;61.86;100342.47;1710623;81;20985;-53
2022/05/09 06:58:31;;;;;;;1.75;0.30;;;;;;;14.27;61.61;100348.34;1682343;81;20929;-55
2022/05/09 07:00:58;;;;;;;2.15;0.37;;;;;;;14.35;59.59;100355.58;1685189;83;21178;-52
2022/05/09 07:03:25;;;;;;;3.27;0.50;;;;;;;14.42;59.98;100351.20;1681226;83;21586;-52
2022/05/09 07:05:54;;;;;;;0.98;0.33;;;;;;;14.48;60.04;100344.97;1679741;83;20925;-54
2022/05/09 07:08:23;;;;;;;1.57;0.30;;;;;;;14.60;60.12;100355.62;1673837;83;21685;-53
2022/05/09 07:10:51;;;;;;;0.90;0.40;;;;;;;14.68;58.96;100351.53;1674028;83;21112;-53
2022/05/09 07:13:17;;;;;;;0.50;0.30;;;;;;;14.79;59.03;100360.90;1664523;84;21159;-53
2022/05/09 07:15:44;;;;;;;1.75;0.35;;;;;;;14.86;57.34;100357.75;1649528;84;21058;-53
2022/05/09 07:18:10;;;;;;;0.40;0.30;;;;;;;14.89;57.52;100356.20;1682578;83;21770;-53
2022/05/09 07:20:37;;;;;;;0.30;0.28;;;;;;;14.92;56.65;100360.11;1679431;83;21072;-54
2022/05/09 07:23:10;;;;;;;0.30;0.30;;;;;;;14.98;57.01;100369.24;1677600;83;21539;-55
2022/05/09 07:25:37;;;;;;;0.93;0.20;;;;;;;15.04;55.39;100373.47;1676743;83;21413;-55
2022/05/09 07:28:04;;;;;;;0.57;0.30;;;;;;;15.08;56.19;100369.59;1681355;83;20989;-54
2022/05/09 07:30:31;;;;;;;1.75;0.20;;;;;;;15.15;55.44;100371.87;1663317;84;21091;-54
2022/05/09 07:32:57;;;;;;;0.42;0.30;;;;;;;15.23;54.96;100375.49;1662764;84;21069;-54
2022/05/09 07:35:24;;;;;;;0.50;0.30;;;;;;;15.30;53.63;100374.20;1669923;83;21401;-54
2022/05/09 07:37:50;;;;;;;2.87;0.30;;;;;;;15.38;54.16;100371.05;1671498;83;21779;-53
2022/05/09 07:40:18;;;;;;;0.50;0.30;;;;;;;15.47;53.99;100378.17;1670562;83;21443;-54
2022/05/09 07:42:47;;;;;;;2.08;0.20;;;;;;;15.47;53.99;100378.17;1666013;83;21534;-53
2022/05/09 07:45:16;;;;;;;1.20;0.30;;;;;;;15.47;51.68;100382.23;1660527;84;21537;-53
2022/05/09 07:47:43;;;;;;;0.30;0.20;;;;;;;15.38;51.23;100394.10;1665628;84;21130;-53
2022/05/09 07:50:11;;;;;;;1.37;0.20;;;;;;;15.30;51.25;100393.67;1661710;84;21179;-54
2022/05/09 07:52:39;;;;;;;0.40;0.20;;;;;;;15.30;51.25;100393.67;1662484;84;21138;-52
2022/05/09 07:55:07;;;;;;;1.65;0.20;;;;;;;15.32;50.90;100389.01;1659328;84;21520;-54
2022/05/09 07:57:34;;;;;;;0.42;0.20;;;;;;;15.36;49.97;100399.61;1660930;84;21046;-54
2022/05/09 08:00:05;;;;;;;1.00;0.30;;;;;;;15.46;49.93;100386.39;1658165;84;21121;-53
2022/05/09 08:02:33;;;;;;;2.10;0.25;;;;;;;15.46;49.93;100386.39;1661348;84;21141;-53
2022/05/09 08:05:00;;;;;;;0.40;0.20;;;;;;;15.58;50.31;100389.77;1699219;82;21088;-54
2022/05/09 08:07:26;;;;;;;2.50;0.20;;;;;;;15.72;48.27;100393.04;1697625;82;20887;-54
2022/05/09 08:09:54;;;;;;;1.12;0.30;;;;;;;15.72;48.27;100393.04;1698020;82;20907;-53
2022/05/09 08:12:21;;;;;;;0.37;0.20;;;;;;;15.78;48.45;100396.25;1700197;82;20963;-53
2022/05/09 08:14:47;;;;;;;0.40;0.20;;;;;;;15.82;46.62;100395.09;1694554;82;21883;-53
2022/05/09 08:17:14;;;;;;;0.68;0.30;;;;;;;15.84;47.21;100405.38;1696240;82;21579;-52
2022/05/09 08:19:41;;;;;;;0.30;0.20;;;;;;;15.86;46.77;100403.45;1695406;82;21081;-53
2022/05/09 08:22:10;;;;;;;0.65;0.20;;;;;;;15.87;46.61;100404.34;1696498;82;21066;-53
2022/05/09 08:24:37;;;;;;;0.40;0.20;;;;;;;15.83;46.21;100403.63;1694849;82;21081;-54
2022/05/09 08:27:04;;;;;;;2.77;0.30;;;;;;;15.82;45.46;100402.39;1698342;83;21224;-54
2022/05/09 08:29:30;;;;;;;0.62;0.20;;;;;;;15.81;45.73;100403.35;1695440;83;21005;-54
2022/05/09 08:31:57;;;;;;;2.55;0.20;;;;;;;15.82;46.57;100410.53;1696353;82;20970;-53
2022/05/09 08:34:23;;;;;;;0.50;0.20;;;;;;;15.84;45.93;100404.02;1692271;83;21058;-54
2022/05/09 08:36:53;;;;;;;1.02;0.20;;;;;;;15.86;44.72;100401.22;1696077;82;21636;-54
2022/05/09 08:39:18;;;;;;;0.95;0.30;;;;;;;15.80;44.37;100392.97;1698807;82;22641;-53
2022/05/09 08:42:06;;;;;;;0.40;0.20;;;;;;;15.78;43.87;100413.90;1697800;82;21070;-54
2022/05/09 08:45:03;;;;;;;0.20;0.17;;;;;;;15.78;43.47;100404.88;1695671;82;22287;-52
2022/05/09 08:47:51;;;;;;;0.88;0.10;;;;;;;15.80;44.73;100408.38;1664901;84;21041;-54
2022/05/09 08:51:04;;;;;;;0.42;0.20;;;;;;;15.82;42.80;100400.52;1644261;84;20895;-57
2022/05/09 08:53:35;;;;;;;2.17;0.23;;;;;;;15.84;42.11;100405.38;1651292;85;21821;-55
2022/05/09 08:56:01;;;;;;;0.53;0.30;;;;;;;15.82;43.48;100407.30;1692775;82;21512;-54
2022/05/09 08:58:56;;;;;;;2.40;0.20;;;;;;;15.84;43.31;100399.95;1688219;82;21038;-55
2022/05/09 09:01:44;;;;;;;0.30;0.20;;;;;;;15.91;43.67;100405.04;1660673;84;21085;-54
2022/05/09 09:04:30;;;;;;;1.85;0.20;;;;;;;15.95;43.20;100405.23;1662857;84;21507;-54
2022/05/09 09:07:05;;;;;;;1.37;0.20;;;;;;;15.93;42.25;100415.30;1659847;84;21101;-53
2022/05/09 09:10:06;;;;;;;1.50;0.30;;;;;;;15.93;42.89;100412.11;1690581;82;21081;-53
2022/05/09 09:13:05;;;;;;;0.20;0.10;;;;;;;15.97;42.86;100416.88;1692026;82;21145;-54
2022/05/09 09:15:55;;;;;;;1.07;0.20;;;;;;;16.03;42.47;100404.28;1691793;82;21528;-54
2022/05/09 09:18:55;;;;;;;1.12;0.20;;;;;;;16.07;43.69;100403.14;1671675;84;20934;-55
2022/05/09 09:21:45;;;;;;;2.05;0.20;;;;;;;16.11;42.22;100413.72;1694269;82;21119;-53
2022/05/09 09:24:53;;;;;;;0.45;0.20;;;;;;;16.12;40.88;100414.11;1695181;82;20954;-53
2022/05/09 09:27:37;;;;;;;0.20;0.20;;;;;;;16.07;39.27;100409.94;1697823;82;20931;-54
2022/05/09 09:30:10;;;;;;;2.10;0.20;;;;;;;16.06;38.93;100419.05;1664560;84;20880;-54
2022/05/09 09:32:34;;;;;;;0.40;0.30;;;;;;;16.09;40.24;100406.62;1660491;83;22098;-54
2022/05/09 09:35:24;;;;;;;3.02;0.30;;;;;;;16.18;41.19;100409.66;1651470;85;21361;-52
2022/05/09 09:38:18;;;;;;;0.47;0.20;;;;;;;16.27;38.57;100412.30;1650701;85;20912;-53
2022/05/09 09:40:45;;;;;;;0.45;0.28;;;;;;;16.28;36.25;100422.20;1647700;85;21378;-54
2022/05/09 09:43:11;;;;;;;2.87;0.20;;;;;;;16.23;36.02;100416.19;1698875;82;21272;-54
2022/05/09 09:45:46;;;;;;;1.85;0.20;;;;;;;16.20;36.67;100415.88;1698224;82;20919;-54
2022/05/09 09:48:19;;;;;;;1.72;0.20;;;;;;;16.26;35.81;100420.05;1665404;84;22175;-53
2022/05/09 09:51:03;;;;;;;2.20;0.20;;;;;;;16.33;34.36;100424.65;1696931;82;21350;-52
2022/05/09 09:53:40;;;;;;;0.45;0.20;;;;;;;16.36;34.04;100423.95;1643033;84;21025;-53
2022/05/09 09:56:11;;;;;;;0.30;0.30;;;;;;;16.42;32.04;100422.70;1664356;84;20963;-53
2022/05/09 09:58:39;;;;;;;0.35;0.10;;;;;;;16.47;33.46;100425.53;1665158;84;21001;-53
2022/05/09 10:01:13;;;;;;;0.30;0.13;;;;;;;16.54;34.60;100432.81;1663272;84;22010;-54
2022/05/09 10:03:42;;;;;;;;;;;;;;;16.60;34.17;100423.80;1662144;84;21053;-53
2022/05/09 10:06:21;;;;;;;0.20;0.17;;;;;;;16.66;32.70;100421.23;1649592;85;20137;-53
2022/05/09 10:09:06;;;;;;;1.65;0.10;;;;;;;16.70;33.79;100418.69;1650344;85;22035;-55
2022/05/09 10:11:34;;;;;;;0.45;0.20;;;;;;;16.77;33.83;100410.53;1658071;84;21680;-53
2022/05/09 10:14:04;;;;;;;0.60;0.17;;;;;;;16.82;33.22;100420.66;1657665;84;21117;-54
2022/05/09 10:16:45;;;;;;;0.35;0.10;;;;;;;16.83;30.65;100411.53;1659747;84;21050;-53
2022/05/09 10:19:15;;;;;;;0.28;0.20;;;;;;;16.81;31.50;100427.53;1662626;84;21454;-54
2022/05/09 10:24:51;;;;;;;3.20;1.02;;;;;;;16.82;29.99;100414.34;1663677;84;21081;-54
2022/05/09 10:27:28;;;;;;;0.68;0.10;;;;;;;16.83;30.26;100419.69;1662272;84;21133;-54
2022/05/09 10:30:01;;;;;;;0.20;0.10;;;;;;;16.81;28.05;100420.26;1662780;84;21071;-53
2022/05/09 10:32:36;;;;;;;1.07;0.10;;;;;;;16.80;28.32;100413.55;1640834;84;20997;-53
2022/05/09 10:35:23;;;;;;;0.98;0.20;;;;;;;16.80;29.11;100409.48;1664094;84;21108;-55
2022/05/09 10:38:11;;;;;;;1.77;0.10;;;;;;;16.83;30.03;100407.45;1661011;84;21085;-54
2022/05/09 10:40:45;;;;;;;0.98;0.10;;;;;;;16.90;29.07;100410.64;1661635;84;21188;-53
2022/05/09 10:43:24;;;;;;;0.30;0.15;;;;;;;16.94;28.39;100410.81;1661483;84;21089;-54
2022/05/09 10:45:51;;;;;;;0.65;0.10;;;;;;;16.92;25.88;100415.02;1660939;84;20951;-53
2022/05/09 10:48:22;;;;;;;0.75;0.10;;;;;;;16.86;25.65;100421.31;1662122;84;20935;-55
2022/05/09 10:50:58;;;;;;;0.30;0.10;;;;;;;16.79;26.08;100429.47;1662261;84;21002;-55
2022/05/09 10:54:09;;;;;;;2.67;0.10;;;;;;;16.67;26.61;100424.34;1661900;84;21406;-54
2022/05/09 10:56:45;;;;;;;0.50;0.10;;;;;;;16.61;26.39;100408.39;1663623;84;21065;-54
2022/05/09 10:59:22;;;;;;;0.78;0.10;;;;;;;16.63;26.55;100408.70;1667695;83;21039;-54
2022/05/09 11:02:03;;;;;;;1.17;0.15;;;;;;;16.74;26.95;100409.87;1701514;81;21374;-53
2022/05/09 11:04:30;;;;;;;0.30;0.10;;;;;;;16.83;27.24;100407.93;1702055;81;21096;-55
2022/05/09 11:07:23;;;;;;;2.15;0.10;;;;;;;16.90;28.20;100421.03;1699368;81;21785;-54
2022/05/09 11:10:40;;;;;;;0.35;0.10;;;;;;;16.97;26.96;100410.15;1702406;81;21673;-54
2022/05/09 11:13:21;;;;;;;1.45;0.20;;;;;;;17.01;26.55;100413.04;1697883;81;21109;-55
2022/05/09 11:16:29;;;;;;;0.30;0.20;;;;;;;17.01;25.88;100406.76;1703654;81;20927;-55
2022/05/09 11:19:04;;;;;;;0.13;0.10;;;;;;;16.99;26.11;100400.54;1702170;81;21087;-53
2022/05/09 11:21:54;;;;;;;2.42;0.17;;;;;;;17.01;26.69;100413.56;1699385;81;22234;-53
2022/05/09 11:24:41;;;;;;;2.70;0.20;;;;;;;17.02;27.21;100411.20;1704898;81;21489;-53
2022/05/09 11:27:50;;;;;;;1.98;0.15;;;;;;;17.03;26.84;100408.87;1700638;81;21053;-54
2022/05/09 11:30:43;;;;;;;1.22;0.20;;;;;;;17.04;27.26;100402.46;1668922;83;21117;-54
2022/05/09 11:33:47;;;;;;;0.23;0.10;;;;;;;17.05;27.62;100404.70;1701763;81;21591;-54
2022/05/09 11:36:35;;;;;;;0.80;0.17;;;;;;;17.06;26.47;100411.89;1668019;83;21657;-54
2022/05/09 11:39:44;;;;;;;0.20;0.10;;;;;;;17.08;24.48;100418.98;1669041;83;21652;-56
2022/05/09 11:45:57;;;;;;;2.83;0.20;;;;;;;17.02;24.98;100411.20;1697122;83;21133;-57
2022/05/09 11:48:46;;;;;;;0.53;0.15;;;;;;;17.02;26.30;100406.63;1670889;83;21117;-55
2022/05/09 11:51:21;;;;;;;1.40;0.20;;;;;;;17.03;25.75;100404.30;1698714;82;21169;-56
2022/05/09 11:53:51;;;;;;;1.25;0.20;;;;;;;17.03;25.55;100409.75;1693102;81;21058;-55
2022/05/09 11:56:18;;;;;;;3.40;0.20;;;;;;;17.02;25.45;100398.47;1696461;82;21399;-54
2022/05/09 11:58:44;;;;;;;0.80;0.17;;;;;;;17.02;26.55;100398.47;1697615;82;21064;-55
2022/05/09 12:01:11;;;;;;;0.45;0.20;;;;;;;17.05;26.76;100400.61;1697863;82;21077;-55